sensor_id;sensor_type;location;lat;lon;timestamp;P1;durP1;ratioP1;P2;durP2;ratioP2
6372;SDS011;3219;51.362;7.074;2023-08-12T00:02:15;19.38;;;14.88;;
6372;SDS011;3219;51.362;7.074;2023-08-12T00:04:45;20.17;;;14.73;;
6372;SDS011;3219;51.362;7.074;2023-08-12T00:07:13;18.48;;;13.13;;
6372;SDS011;3219;51.362;7.074;2023-08-12T00:09:41;19.80;;;14.95;;
6372;SDS011;3219;51.362;7.074;2023-08-12T00:12:11;22.75;;;15.85;;
6372;SDS011;3219;51.362;7.074;2023-08-12T00:14:39;21.55;;;14.52;;
6372;SDS011;3219;51.362;7.074;2023-08-12T00:17:07;22.42;;;14.68;;
6372;SDS011;3219;51.362;7.074;2023-08-12T00:19:36;20.95;;;15.82;;
6372;SDS011;3219;51.362;7.074;2023-08-12T00:22:04;20.52;;;14.73;;
6372;SDS011;3219;51.362;7.074;2023-08-12T00:24:32;20.40;;;14.40;;
6372;SDS011;3219;51.362;7.074;2023-08-12T00:27:00;21.80;;;16.02;;
6372;SDS011;3219;51.362;7.074;2023-08-12T00:29:30;21.60;;;15.07;;
6372;SDS011;3219;51.362;7.074;2023-08-12T00:31:59;22.88;;;15.98;;
6372;SDS011;3219;51.362;7.074;2023-08-12T00:34:27;20.67;;;15.15;;
6372;SDS011;3219;51.362;7.074;2023-08-12T00:36:55;20.45;;;14.70;;
6372;SDS011;3219;51.362;7.074;2023-08-12T00:39:23;20.40;;;14.23;;
6372;SDS011;3219;51.362;7.074;2023-08-12T00:41:52;19.77;;;14.30;;
6372;SDS011;3219;51.362;7.074;2023-08-12T00:44:20;18.67;;;13.02;;
6372;SDS011;3219;51.362;7.074;2023-08-12T00:46:50;19.17;;;13.85;;
6372;SDS011;3219;51.362;7.074;2023-08-12T00:49:20;21.08;;;13.65;;
6372;SDS011;3219;51.362;7.074;2023-08-12T00:51:49;22.10;;;15.35;;
6372;SDS011;3219;51.362;7.074;2023-08-12T00:54:17;20.05;;;14.25;;
6372;SDS011;3219;51.362;7.074;2023-08-12T00:56:48;20.92;;;14.57;;
6372;SDS011;3219;51.362;7.074;2023-08-12T00:59:17;19.33;;;13.95;;
6372;SDS011;3219;51.362;7.074;2023-08-12T01:01:46;21.92;;;15.05;;
6372;SDS011;3219;51.362;7.074;2023-08-12T01:04:16;20.85;;;14.57;;
6372;SDS011;3219;51.362;7.074;2023-08-12T01:06:45;20.40;;;13.95;;
6372;SDS011;3219;51.362;7.074;2023-08-12T01:09:13;17.08;;;12.65;;
6372;SDS011;3219;51.362;7.074;2023-08-12T01:11:42;18.38;;;11.73;;
6372;SDS011;3219;51.362;7.074;2023-08-12T01:14:14;14.32;;;10.30;;
6372;SDS011;3219;51.362;7.074;2023-08-12T01:16:43;13.48;;;8.82;;
6372;SDS011;3219;51.362;7.074;2023-08-12T01:19:21;15.43;;;10.63;;
6372;SDS011;3219;51.362;7.074;2023-08-12T01:21:52;17.40;;;11.98;;
6372;SDS011;3219;51.362;7.074;2023-08-12T01:24:24;15.15;;;10.52;;
6372;SDS011;3219;51.362;7.074;2023-08-12T01:26:52;16.73;;;11.77;;
6372;SDS011;3219;51.362;7.074;2023-08-12T01:29:20;16.83;;;10.25;;
6372;SDS011;3219;51.362;7.074;2023-08-12T01:31:50;13.23;;;9.32;;
6372;SDS011;3219;51.362;7.074;2023-08-12T01:34:20;11.40;;;8.73;;
6372;SDS011;3219;51.362;7.074;2023-08-12T01:36:54;11.57;;;8.00;;
6372;SDS011;3219;51.362;7.074;2023-08-12T01:39:24;11.57;;;8.00;;
6372;SDS011;3219;51.362;7.074;2023-08-12T01:41:54;12.13;;;10.23;;
6372;SDS011;3219;51.362;7.074;2023-08-12T01:44:23;10.93;;;7.72;;
6372;SDS011;3219;51.362;7.074;2023-08-12T01:46:51;10.43;;;7.88;;
6372;SDS011;3219;51.362;7.074;2023-08-12T01:49:20;10.18;;;7.47;;
6372;SDS011;3219;51.362;7.074;2023-08-12T01:51:49;10.57;;;7.80;;
6372;SDS011;3219;51.362;7.074;2023-08-12T01:54:18;13.32;;;8.88;;
6372;SDS011;3219;51.362;7.074;2023-08-12T01:56:47;11.57;;;7.88;;
6372;SDS011;3219;51.362;7.074;2023-08-12T01:59:16;11.82;;;9.02;;
6372;SDS011;3219;51.362;7.074;2023-08-12T02:01:44;12.48;;;8.65;;
6372;SDS011;3219;51.362;7.074;2023-08-12T02:04:12;13.05;;;8.95;;
6372;SDS011;3219;51.362;7.074;2023-08-12T02:06:41;11.13;;;7.78;;
6372;SDS011;3219;51.362;7.074;2023-08-12T02:09:09;14.65;;;9.18;;
6372;SDS011;3219;51.362;7.074;2023-08-12T02:11:38;11.73;;;8.23;;
6372;SDS011;3219;51.362;7.074;2023-08-12T02:14:08;10.45;;;7.60;;
6372;SDS011;3219;51.362;7.074;2023-08-12T02:16:36;13.00;;;7.80;;
6372;SDS011;3219;51.362;7.074;2023-08-12T02:19:04;10.65;;;8.85;;
6372;SDS011;3219;51.362;7.074;2023-08-12T02:21:33;11.15;;;8.32;;
6372;SDS011;3219;51.362;7.074;2023-08-12T02:24:02;11.27;;;7.90;;
6372;SDS011;3219;51.362;7.074;2023-08-12T02:26:31;10.02;;;7.50;;
6372;SDS011;3219;51.362;7.074;2023-08-12T02:28:59;13.57;;;8.20;;
6372;SDS011;3219;51.362;7.074;2023-08-12T02:31:29;10.90;;;7.72;;
6372;SDS011;3219;51.362;7.074;2023-08-12T02:33:57;10.75;;;8.38;;
6372;SDS011;3219;51.362;7.074;2023-08-12T02:36:26;12.25;;;8.52;;
6372;SDS011;3219;51.362;7.074;2023-08-12T02:38:55;12.18;;;8.40;;
6372;SDS011;3219;51.362;7.074;2023-08-12T02:41:23;12.68;;;8.52;;
6372;SDS011;3219;51.362;7.074;2023-08-12T02:43:52;10.82;;;8.07;;
6372;SDS011;3219;51.362;7.074;2023-08-12T02:46:21;12.20;;;8.77;;
6372;SDS011;3219;51.362;7.074;2023-08-12T02:51:20;11.85;;;8.65;;
6372;SDS011;3219;51.362;7.074;2023-08-12T02:53:48;11.70;;;8.18;;
6372;SDS011;3219;51.362;7.074;2023-08-12T02:56:17;11.57;;;8.40;;
6372;SDS011;3219;51.362;7.074;2023-08-12T02:58:46;10.88;;;8.35;;
6372;SDS011;3219;51.362;7.074;2023-08-12T03:01:14;12.70;;;9.10;;
6372;SDS011;3219;51.362;7.074;2023-08-12T03:03:44;13.27;;;8.52;;
6372;SDS011;3219;51.362;7.074;2023-08-12T03:06:12;11.70;;;8.68;;
6372;SDS011;3219;51.362;7.074;2023-08-12T03:08:42;12.45;;;7.82;;
6372;SDS011;3219;51.362;7.074;2023-08-12T03:11:11;11.02;;;8.50;;
6372;SDS011;3219;51.362;7.074;2023-08-12T03:13:40;11.20;;;9.23;;
6372;SDS011;3219;51.362;7.074;2023-08-12T03:16:10;12.02;;;8.32;;
6372;SDS011;3219;51.362;7.074;2023-08-12T03:18:39;11.15;;;8.05;;
6372;SDS011;3219;51.362;7.074;2023-08-12T03:21:08;12.43;;;8.48;;
6372;SDS011;3219;51.362;7.074;2023-08-12T03:26:06;11.23;;;9.07;;
6372;SDS011;3219;51.362;7.074;2023-08-12T03:28:36;13.20;;;8.45;;
6372;SDS011;3219;51.362;7.074;2023-08-12T03:31:04;10.25;;;7.85;;
6372;SDS011;3219;51.362;7.074;2023-08-12T03:33:33;12.32;;;8.60;;
6372;SDS011;3219;51.362;7.074;2023-08-12T03:36:01;12.43;;;8.15;;
6372;SDS011;3219;51.362;7.074;2023-08-12T03:38:32;13.07;;;8.43;;
6372;SDS011;3219;51.362;7.074;2023-08-12T03:41:01;10.23;;;8.32;;
6372;SDS011;3219;51.362;7.074;2023-08-12T03:43:31;10.93;;;7.90;;
6372;SDS011;3219;51.362;7.074;2023-08-12T03:45:59;11.73;;;7.75;;
6372;SDS011;3219;51.362;7.074;2023-08-12T03:48:28;10.13;;;7.38;;
6372;SDS011;3219;51.362;7.074;2023-08-12T03:50:57;11.30;;;7.50;;
6372;SDS011;3219;51.362;7.074;2023-08-12T03:53:25;8.80;;;6.30;;
6372;SDS011;3219;51.362;7.074;2023-08-12T03:55:54;10.38;;;7.03;;
6372;SDS011;3219;51.362;7.074;2023-08-12T03:58:23;8.65;;;6.47;;
6372;SDS011;3219;51.362;7.074;2023-08-12T04:00:52;9.95;;;7.05;;
6372;SDS011;3219;51.362;7.074;2023-08-12T04:03:21;8.98;;;6.47;;
6372;SDS011;3219;51.362;7.074;2023-08-12T04:05:49;11.38;;;7.40;;
6372;SDS011;3219;51.362;7.074;2023-08-12T04:08:18;9.30;;;5.63;;
6372;SDS011;3219;51.362;7.074;2023-08-12T04:10:46;9.10;;;6.07;;
6372;SDS011;3219;51.362;7.074;2023-08-12T04:13:15;9.63;;;6.35;;
6372;SDS011;3219;51.362;7.074;2023-08-12T04:15:47;9.73;;;6.38;;
6372;SDS011;3219;51.362;7.074;2023-08-12T04:18:17;7.10;;;5.95;;
6372;SDS011;3219;51.362;7.074;2023-08-12T04:20:46;7.95;;;6.38;;
6372;SDS011;3219;51.362;7.074;2023-08-12T04:23:15;8.38;;;5.10;;
6372;SDS011;3219;51.362;7.074;2023-08-12T04:25:43;7.32;;;5.57;;
6372;SDS011;3219;51.362;7.074;2023-08-12T04:28:12;8.15;;;5.38;;
6372;SDS011;3219;51.362;7.074;2023-08-12T04:30:41;8.48;;;5.88;;
6372;SDS011;3219;51.362;7.074;2023-08-12T04:33:10;9.05;;;5.75;;
6372;SDS011;3219;51.362;7.074;2023-08-12T04:35:40;6.95;;;5.70;;
6372;SDS011;3219;51.362;7.074;2023-08-12T04:38:09;7.40;;;5.60;;
6372;SDS011;3219;51.362;7.074;2023-08-12T04:40:38;8.05;;;5.18;;
6372;SDS011;3219;51.362;7.074;2023-08-12T04:43:07;8.25;;;5.95;;
6372;SDS011;3219;51.362;7.074;2023-08-12T04:45:36;8.63;;;5.07;;
6372;SDS011;3219;51.362;7.074;2023-08-12T04:48:05;6.78;;;5.00;;
6372;SDS011;3219;51.362;7.074;2023-08-12T04:50:35;6.75;;;4.57;;
6372;SDS011;3219;51.362;7.074;2023-08-12T04:53:05;7.65;;;4.95;;
6372;SDS011;3219;51.362;7.074;2023-08-12T04:55:34;8.25;;;4.93;;
6372;SDS011;3219;51.362;7.074;2023-08-12T04:58:03;7.78;;;5.60;;
6372;SDS011;3219;51.362;7.074;2023-08-12T05:00:32;8.48;;;5.15;;
6372;SDS011;3219;51.362;7.074;2023-08-12T05:03:01;7.35;;;5.55;;
6372;SDS011;3219;51.362;7.074;2023-08-12T05:05:29;7.60;;;5.50;;
6372;SDS011;3219;51.362;7.074;2023-08-12T05:07:58;9.02;;;6.28;;
6372;SDS011;3219;51.362;7.074;2023-08-12T05:10:28;10.07;;;5.45;;
6372;SDS011;3219;51.362;7.074;2023-08-12T05:12:57;8.38;;;5.72;;
6372;SDS011;3219;51.362;7.074;2023-08-12T05:17:54;6.30;;;5.10;;
6372;SDS011;3219;51.362;7.074;2023-08-12T05:20:23;7.93;;;5.25;;
6372;SDS011;3219;51.362;7.074;2023-08-12T05:22:52;7.60;;;6.07;;
6372;SDS011;3219;51.362;7.074;2023-08-12T05:25:20;8.18;;;5.78;;
6372;SDS011;3219;51.362;7.074;2023-08-12T05:27:50;9.00;;;5.95;;
6372;SDS011;3219;51.362;7.074;2023-08-12T05:30:19;8.77;;;6.18;;
6372;SDS011;3219;51.362;7.074;2023-08-12T05:32:48;7.28;;;5.72;;
6372;SDS011;3219;51.362;7.074;2023-08-12T05:35:16;8.82;;;5.70;;
6372;SDS011;3219;51.362;7.074;2023-08-12T05:37:45;9.60;;;6.05;;
6372;SDS011;3219;51.362;7.074;2023-08-12T05:40:14;6.50;;;5.65;;
6372;SDS011;3219;51.362;7.074;2023-08-12T05:42:42;8.93;;;4.82;;
6372;SDS011;3219;51.362;7.074;2023-08-12T05:45:12;6.90;;;5.15;;
6372;SDS011;3219;51.362;7.074;2023-08-12T05:47:41;7.03;;;4.57;;
6372;SDS011;3219;51.362;7.074;2023-08-12T05:50:10;5.90;;;4.82;;
6372;SDS011;3219;51.362;7.074;2023-08-12T05:52:38;6.68;;;4.32;;
6372;SDS011;3219;51.362;7.074;2023-08-12T05:55:07;5.05;;;4.15;;
6372;SDS011;3219;51.362;7.074;2023-08-12T06:00:05;5.55;;;4.38;;
6372;SDS011;3219;51.362;7.074;2023-08-12T06:02:36;5.60;;;4.57;;
6372;SDS011;3219;51.362;7.074;2023-08-12T06:05:05;6.45;;;5.72;;
6372;SDS011;3219;51.362;7.074;2023-08-12T06:10:02;6.82;;;4.60;;
6372;SDS011;3219;51.362;7.074;2023-08-12T06:12:31;6.03;;;4.40;;
6372;SDS011;3219;51.362;7.074;2023-08-12T06:14:59;6.53;;;4.47;;
6372;SDS011;3219;51.362;7.074;2023-08-12T06:17:28;7.03;;;4.85;;
6372;SDS011;3219;51.362;7.074;2023-08-12T06:19:58;5.20;;;4.07;;
6372;SDS011;3219;51.362;7.074;2023-08-12T06:22:27;6.68;;;4.82;;
6372;SDS011;3219;51.362;7.074;2023-08-12T06:24:56;4.50;;;3.95;;
6372;SDS011;3219;51.362;7.074;2023-08-12T06:27:25;5.57;;;4.30;;
6372;SDS011;3219;51.362;7.074;2023-08-12T06:29:54;6.40;;;4.72;;
6372;SDS011;3219;51.362;7.074;2023-08-12T06:32:23;6.55;;;4.35;;
6372;SDS011;3219;51.362;7.074;2023-08-12T06:34:52;6.07;;;4.47;;
6372;SDS011;3219;51.362;7.074;2023-08-12T06:37:22;7.38;;;4.22;;
6372;SDS011;3219;51.362;7.074;2023-08-12T06:39:51;7.85;;;4.55;;
6372;SDS011;3219;51.362;7.074;2023-08-12T06:42:20;6.97;;;4.35;;
6372;SDS011;3219;51.362;7.074;2023-08-12T06:44:49;5.47;;;3.78;;
6372;SDS011;3219;51.362;7.074;2023-08-12T06:47:18;4.30;;;3.83;;
6372;SDS011;3219;51.362;7.074;2023-08-12T06:49:47;5.10;;;3.55;;
6372;SDS011;3219;51.362;7.074;2023-08-12T06:52:15;4.85;;;4.05;;
6372;SDS011;3219;51.362;7.074;2023-08-12T06:54:45;6.07;;;4.28;;
6372;SDS011;3219;51.362;7.074;2023-08-12T06:57:14;6.57;;;4.10;;
6372;SDS011;3219;51.362;7.074;2023-08-12T06:59:43;5.63;;;3.80;;
6372;SDS011;3219;51.362;7.074;2023-08-12T07:02:11;4.35;;;3.80;;
6372;SDS011;3219;51.362;7.074;2023-08-12T07:04:40;6.65;;;3.58;;
6372;SDS011;3219;51.362;7.074;2023-08-12T07:07:09;4.07;;;3.67;;
6372;SDS011;3219;51.362;7.074;2023-08-12T07:09:37;5.63;;;3.58;;
6372;SDS011;3219;51.362;7.074;2023-08-12T07:12:08;4.07;;;3.72;;
6372;SDS011;3219;51.362;7.074;2023-08-12T07:14:36;3.95;;;3.53;;
6372;SDS011;3219;51.362;7.074;2023-08-12T07:17:05;3.67;;;2.95;;
6372;SDS011;3219;51.362;7.074;2023-08-12T07:19:33;3.85;;;3.10;;
6372;SDS011;3219;51.362;7.074;2023-08-12T07:22:02;3.65;;;2.65;;
6372;SDS011;3219;51.362;7.074;2023-08-12T07:24:31;5.70;;;3.15;;
6372;SDS011;3219;51.362;7.074;2023-08-12T07:27:00;4.78;;;2.90;;
6372;SDS011;3219;51.362;7.074;2023-08-12T07:29:30;4.75;;;3.85;;
6372;SDS011;3219;51.362;7.074;2023-08-12T07:31:58;4.85;;;4.25;;
6372;SDS011;3219;51.362;7.074;2023-08-12T07:34:27;4.10;;;3.42;;
6372;SDS011;3219;51.362;7.074;2023-08-12T07:36:56;4.35;;;2.97;;
6372;SDS011;3219;51.362;7.074;2023-08-12T07:39:25;4.47;;;3.63;;
6372;SDS011;3219;51.362;7.074;2023-08-12T07:41:53;4.60;;;3.63;;
6372;SDS011;3219;51.362;7.074;2023-08-12T07:44:22;4.90;;;3.63;;
6372;SDS011;3219;51.362;7.074;2023-08-12T07:46:52;4.20;;;3.80;;
6372;SDS011;3219;51.362;7.074;2023-08-12T07:49:21;4.38;;;3.85;;
6372;SDS011;3219;51.362;7.074;2023-08-12T07:51:50;4.05;;;3.15;;
6372;SDS011;3219;51.362;7.074;2023-08-12T07:54:18;4.15;;;3.25;;
6372;SDS011;3219;51.362;7.074;2023-08-12T07:56:47;5.22;;;4.05;;
6372;SDS011;3219;51.362;7.074;2023-08-12T07:59:17;4.97;;;3.78;;
6372;SDS011;3219;51.362;7.074;2023-08-12T08:01:46;5.03;;;3.55;;
6372;SDS011;3219;51.362;7.074;2023-08-12T08:04:16;4.60;;;4.00;;
6372;SDS011;3219;51.362;7.074;2023-08-12T08:06:44;5.82;;;4.65;;
6372;SDS011;3219;51.362;7.074;2023-08-12T08:09:13;4.35;;;3.95;;
6372;SDS011;3219;51.362;7.074;2023-08-12T08:11:42;6.07;;;5.05;;
6372;SDS011;3219;51.362;7.074;2023-08-12T08:14:10;5.32;;;4.68;;
6372;SDS011;3219;51.362;7.074;2023-08-12T08:16:39;6.18;;;4.10;;
6372;SDS011;3219;51.362;7.074;2023-08-12T08:19:07;6.40;;;4.95;;
6372;SDS011;3219;51.362;7.074;2023-08-12T08:21:37;6.95;;;6.05;;
6372;SDS011;3219;51.362;7.074;2023-08-12T08:24:06;6.30;;;5.70;;
6372;SDS011;3219;51.362;7.074;2023-08-12T08:26:36;6.65;;;5.88;;
6372;SDS011;3219;51.362;7.074;2023-08-12T08:29:05;6.90;;;5.53;;
6372;SDS011;3219;51.362;7.074;2023-08-12T08:31:33;5.40;;;4.72;;
6372;SDS011;3219;51.362;7.074;2023-08-12T08:34:02;7.35;;;5.90;;
6372;SDS011;3219;51.362;7.074;2023-08-12T08:36:30;5.78;;;5.15;;
6372;SDS011;3219;51.362;7.074;2023-08-12T08:39:00;5.90;;;5.38;;
6372;SDS011;3219;51.362;7.074;2023-08-12T08:41:29;5.95;;;5.25;;
6372;SDS011;3219;51.362;7.074;2023-08-12T08:43:59;6.53;;;5.65;;
6372;SDS011;3219;51.362;7.074;2023-08-12T08:46:29;5.53;;;5.00;;
6372;SDS011;3219;51.362;7.074;2023-08-12T08:48:58;6.70;;;5.55;;
6372;SDS011;3219;51.362;7.074;2023-08-12T08:51:27;5.45;;;4.43;;
6372;SDS011;3219;51.362;7.074;2023-08-12T08:53:57;5.95;;;5.22;;
6372;SDS011;3219;51.362;7.074;2023-08-12T08:56:27;6.60;;;4.65;;
6372;SDS011;3219;51.362;7.074;2023-08-12T08:58:56;5.75;;;5.22;;
6372;SDS011;3219;51.362;7.074;2023-08-12T09:01:24;9.05;;;6.03;;
6372;SDS011;3219;51.362;7.074;2023-08-12T09:03:53;7.18;;;5.43;;
6372;SDS011;3219;51.362;7.074;2023-08-12T09:06:22;5.82;;;5.30;;
6372;SDS011;3219;51.362;7.074;2023-08-12T09:08:52;7.32;;;4.53;;
6372;SDS011;3219;51.362;7.074;2023-08-12T09:11:21;6.32;;;4.32;;
6372;SDS011;3219;51.362;7.074;2023-08-12T09:13:51;4.75;;;4.00;;
6372;SDS011;3219;51.362;7.074;2023-08-12T09:16:20;3.65;;;3.25;;
6372;SDS011;3219;51.362;7.074;2023-08-12T09:18:51;3.35;;;2.97;;
6372;SDS011;3219;51.362;7.074;2023-08-12T09:21:22;3.80;;;3.10;;
6372;SDS011;3219;51.362;7.074;2023-08-12T09:23:50;6.47;;;3.10;;
6372;SDS011;3219;51.362;7.074;2023-08-12T09:26:19;3.60;;;2.72;;
6372;SDS011;3219;51.362;7.074;2023-08-12T09:28:48;4.60;;;2.97;;
6372;SDS011;3219;51.362;7.074;2023-08-12T09:31:24;3.42;;;2.97;;
6372;SDS011;3219;51.362;7.074;2023-08-12T09:33:53;2.72;;;2.25;;
6372;SDS011;3219;51.362;7.074;2023-08-12T09:38:51;3.05;;;2.33;;
6372;SDS011;3219;51.362;7.074;2023-08-12T09:41:19;2.85;;;2.47;;
6372;SDS011;3219;51.362;7.074;2023-08-12T09:43:48;3.08;;;2.85;;
6372;SDS011;3219;51.362;7.074;2023-08-12T09:46:16;2.92;;;2.30;;
6372;SDS011;3219;51.362;7.074;2023-08-12T09:48:46;4.10;;;3.05;;
6372;SDS011;3219;51.362;7.074;2023-08-12T09:51:15;2.65;;;1.92;;
6372;SDS011;3219;51.362;7.074;2023-08-12T09:53:44;4.18;;;1.92;;
6372;SDS011;3219;51.362;7.074;2023-08-12T09:58:41;3.03;;;2.17;;
6372;SDS011;3219;51.362;7.074;2023-08-12T10:03:39;2.97;;;2.03;;
6372;SDS011;3219;51.362;7.074;2023-08-12T10:06:10;2.97;;;2.13;;
6372;SDS011;3219;51.362;7.074;2023-08-12T10:08:39;3.13;;;1.50;;
6372;SDS011;3219;51.362;7.074;2023-08-12T10:13:37;6.22;;;1.92;;
6372;SDS011;3219;51.362;7.074;2023-08-12T10:16:06;2.55;;;2.05;;
6372;SDS011;3219;51.362;7.074;2023-08-12T10:18:35;2.88;;;1.85;;
6372;SDS011;3219;51.362;7.074;2023-08-12T10:21:04;2.15;;;1.95;;
6372;SDS011;3219;51.362;7.074;2023-08-12T10:23:35;3.25;;;1.35;;
6372;SDS011;3219;51.362;7.074;2023-08-12T10:26:05;2.10;;;1.33;;
6372;SDS011;3219;51.362;7.074;2023-08-12T10:28:33;3.80;;;1.50;;
6372;SDS011;3219;51.362;7.074;2023-08-12T10:33:34;2.17;;;1.73;;
6372;SDS011;3219;51.362;7.074;2023-08-12T10:36:03;4.55;;;1.70;;
6372;SDS011;3219;51.362;7.074;2023-08-12T10:38:32;2.85;;;1.48;;
6372;SDS011;3219;51.362;7.074;2023-08-12T10:41:18;1.77;;;1.17;;
6372;SDS011;3219;51.362;7.074;2023-08-12T10:43:53;1.65;;;1.52;;
6372;SDS011;3219;51.362;7.074;2023-08-12T10:46:22;2.67;;;1.13;;
6372;SDS011;3219;51.362;7.074;2023-08-12T10:48:58;2.72;;;1.38;;
6372;SDS011;3219;51.362;7.074;2023-08-12T10:54:21;3.08;;;1.58;;
6372;SDS011;3219;51.362;7.074;2023-08-12T10:57:08;2.55;;;0.80;;
6372;SDS011;3219;51.362;7.074;2023-08-12T10:59:47;1.73;;;1.10;;
6372;SDS011;3219;51.362;7.074;2023-08-12T11:02:16;5.35;;;1.17;;
6372;SDS011;3219;51.362;7.074;2023-08-12T11:04:44;3.47;;;0.80;;
6372;SDS011;3219;51.362;7.074;2023-08-12T11:07:17;2.92;;;0.85;;
6372;SDS011;3219;51.362;7.074;2023-08-12T11:09:46;2.17;;;0.90;;
6372;SDS011;3219;51.362;7.074;2023-08-12T11:12:31;3.38;;;1.02;;
6372;SDS011;3219;51.362;7.074;2023-08-12T11:15:01;3.28;;;1.73;;
6372;SDS011;3219;51.362;7.074;2023-08-12T11:17:33;1.60;;;0.85;;
6372;SDS011;3219;51.362;7.074;2023-08-12T11:20:03;1.80;;;0.98;;
6372;SDS011;3219;51.362;7.074;2023-08-12T11:22:32;1.83;;;0.93;;
6372;SDS011;3219;51.362;7.074;2023-08-12T11:25:02;1.17;;;0.65;;
6372;SDS011;3219;51.362;7.074;2023-08-12T11:27:38;1.75;;;0.43;;
6372;SDS011;3219;51.362;7.074;2023-08-12T11:30:08;1.25;;;0.55;;
6372;SDS011;3219;51.362;7.074;2023-08-12T11:32:37;1.33;;;0.75;;
6372;SDS011;3219;51.362;7.074;2023-08-12T11:35:07;1.70;;;0.63;;
6372;SDS011;3219;51.362;7.074;2023-08-12T11:37:36;1.40;;;0.80;;
6372;SDS011;3219;51.362;7.074;2023-08-12T11:40:05;0.70;;;0.50;;
6372;SDS011;3219;51.362;7.074;2023-08-12T11:42:35;0.73;;;0.65;;
6372;SDS011;3219;51.362;7.074;2023-08-12T11:45:06;1.92;;;0.70;;
6372;SDS011;3219;51.362;7.074;2023-08-12T11:47:35;0.68;;;0.60;;
6372;SDS011;3219;51.362;7.074;2023-08-12T11:50:04;1.10;;;0.85;;
6372;SDS011;3219;51.362;7.074;2023-08-12T11:52:33;1.30;;;0.60;;
6372;SDS011;3219;51.362;7.074;2023-08-12T11:57:31;1.95;;;0.60;;
6372;SDS011;3219;51.362;7.074;2023-08-12T12:00:00;0.98;;;0.82;;
6372;SDS011;3219;51.362;7.074;2023-08-12T12:02:31;1.23;;;0.90;;
6372;SDS011;3219;51.362;7.074;2023-08-12T12:05:05;0.70;;;0.52;;
6372;SDS011;3219;51.362;7.074;2023-08-12T12:07:33;1.10;;;0.63;;
6372;SDS011;3219;51.362;7.074;2023-08-12T12:10:02;1.00;;;0.80;;
6372;SDS011;3219;51.362;7.074;2023-08-12T12:12:32;1.25;;;0.90;;
6372;SDS011;3219;51.362;7.074;2023-08-12T12:15:02;1.42;;;1.08;;
6372;SDS011;3219;51.362;7.074;2023-08-12T12:17:32;1.48;;;1.23;;
6372;SDS011;3219;51.362;7.074;2023-08-12T12:20:01;1.45;;;1.35;;
6372;SDS011;3219;51.362;7.074;2023-08-12T12:22:31;1.50;;;0.90;;
6372;SDS011;3219;51.362;7.074;2023-08-12T12:25:04;1.30;;;1.17;;
6372;SDS011;3219;51.362;7.074;2023-08-12T12:27:33;1.15;;;0.80;;
6372;SDS011;3219;51.362;7.074;2023-08-12T12:30:02;1.13;;;1.02;;
6372;SDS011;3219;51.362;7.074;2023-08-12T12:32:34;1.58;;;1.17;;
6372;SDS011;3219;51.362;7.074;2023-08-12T12:35:03;1.88;;;0.52;;
6372;SDS011;3219;51.362;7.074;2023-08-12T12:37:32;1.60;;;0.73;;
6372;SDS011;3219;51.362;7.074;2023-08-12T12:40:01;0.60;;;0.30;;
6372;SDS011;3219;51.362;7.074;2023-08-12T12:42:31;1.88;;;1.45;;
6372;SDS011;3219;51.362;7.074;2023-08-12T12:44:59;2.10;;;0.50;;
6372;SDS011;3219;51.362;7.074;2023-08-12T12:47:28;1.20;;;0.60;;
6372;SDS011;3219;51.362;7.074;2023-08-12T12:49:58;1.75;;;0.60;;
6372;SDS011;3219;51.362;7.074;2023-08-12T12:52:27;2.80;;;1.40;;
6372;SDS011;3219;51.362;7.074;2023-08-12T12:57:25;1.23;;;1.13;;
6372;SDS011;3219;51.362;7.074;2023-08-12T12:59:54;1.83;;;0.80;;
6372;SDS011;3219;51.362;7.074;2023-08-12T13:02:23;2.22;;;2.05;;
6372;SDS011;3219;51.362;7.074;2023-08-12T13:04:52;1.55;;;0.82;;
6372;SDS011;3219;51.362;7.074;2023-08-12T13:09:51;1.60;;;1.50;;
6372;SDS011;3219;51.362;7.074;2023-08-12T13:12:20;1.40;;;1.02;;
6372;SDS011;3219;51.362;7.074;2023-08-12T13:14:51;1.85;;;1.75;;
6372;SDS011;3219;51.362;7.074;2023-08-12T13:17:20;1.90;;;1.30;;
6372;SDS011;3219;51.362;7.074;2023-08-12T13:19:49;2.10;;;1.30;;
6372;SDS011;3219;51.362;7.074;2023-08-12T13:22:18;2.03;;;1.48;;
6372;SDS011;3219;51.362;7.074;2023-08-12T13:27:18;2.22;;;1.90;;
6372;SDS011;3219;51.362;7.074;2023-08-12T13:29:48;2.38;;;1.55;;
6372;SDS011;3219;51.362;7.074;2023-08-12T13:34:46;2.20;;;1.83;;
6372;SDS011;3219;51.362;7.074;2023-08-12T13:37:15;3.38;;;2.95;;
6372;SDS011;3219;51.362;7.074;2023-08-12T13:39:44;4.30;;;3.42;;
6372;SDS011;3219;51.362;7.074;2023-08-12T13:42:13;3.53;;;3.22;;
6372;SDS011;3219;51.362;7.074;2023-08-12T13:44:44;4.60;;;3.50;;
6372;SDS011;3219;51.362;7.074;2023-08-12T13:47:13;4.10;;;3.63;;
6372;SDS011;3219;51.362;7.074;2023-08-12T13:49:42;3.63;;;2.95;;
6372;SDS011;3219;51.362;7.074;2023-08-12T13:52:11;3.28;;;2.53;;
6372;SDS011;3219;51.362;7.074;2023-08-12T13:54:40;3.10;;;2.80;;
6372;SDS011;3219;51.362;7.074;2023-08-12T13:57:09;4.25;;;3.20;;
6372;SDS011;3219;51.362;7.074;2023-08-12T13:59:38;3.58;;;2.33;;
6372;SDS011;3219;51.362;7.074;2023-08-12T14:02:10;3.70;;;3.13;;
6372;SDS011;3219;51.362;7.074;2023-08-12T14:04:39;2.53;;;2.30;;
6372;SDS011;3219;51.362;7.074;2023-08-12T14:07:08;2.58;;;2.22;;
6372;SDS011;3219;51.362;7.074;2023-08-12T14:09:37;2.35;;;2.08;;
6372;SDS011;3219;51.362;7.074;2023-08-12T14:12:06;2.35;;;1.63;;
6372;SDS011;3219;51.362;7.074;2023-08-12T14:14:35;2.67;;;2.17;;
6372;SDS011;3219;51.362;7.074;2023-08-12T14:17:05;3.95;;;2.70;;
6372;SDS011;3219;51.362;7.074;2023-08-12T14:19:39;2.70;;;2.50;;
6372;SDS011;3219;51.362;7.074;2023-08-12T14:22:08;3.55;;;2.20;;
6372;SDS011;3219;51.362;7.074;2023-08-12T14:24:37;2.70;;;2.15;;
6372;SDS011;3219;51.362;7.074;2023-08-12T14:27:07;3.70;;;2.42;;
6372;SDS011;3219;51.362;7.074;2023-08-12T14:29:36;3.13;;;2.78;;
6372;SDS011;3219;51.362;7.074;2023-08-12T14:32:05;2.92;;;1.83;;
6372;SDS011;3219;51.362;7.074;2023-08-12T14:34:34;3.03;;;1.73;;
6372;SDS011;3219;51.362;7.074;2023-08-12T14:37:06;2.30;;;2.10;;
6372;SDS011;3219;51.362;7.074;2023-08-12T14:39:34;3.08;;;2.80;;
6372;SDS011;3219;51.362;7.074;2023-08-12T14:42:03;1.85;;;1.65;;
6372;SDS011;3219;51.362;7.074;2023-08-12T14:44:33;2.00;;;1.50;;
6372;SDS011;3219;51.362;7.074;2023-08-12T14:47:02;3.17;;;2.25;;
6372;SDS011;3219;51.362;7.074;2023-08-12T14:49:30;3.20;;;2.60;;
6372;SDS011;3219;51.362;7.074;2023-08-12T14:51:59;3.95;;;2.47;;
6372;SDS011;3219;51.362;7.074;2023-08-12T14:54:29;3.13;;;2.55;;
6372;SDS011;3219;51.362;7.074;2023-08-12T14:56:57;3.40;;;2.83;;
6372;SDS011;3219;51.362;7.074;2023-08-12T14:59:26;4.28;;;3.42;;
6372;SDS011;3219;51.362;7.074;2023-08-12T15:01:54;4.10;;;3.47;;
6372;SDS011;3219;51.362;7.074;2023-08-12T15:04:23;6.07;;;2.75;;
6372;SDS011;3219;51.362;7.074;2023-08-12T15:06:51;3.88;;;3.17;;
6372;SDS011;3219;51.362;7.074;2023-08-12T15:09:20;3.78;;;3.25;;
6372;SDS011;3219;51.362;7.074;2023-08-12T15:11:50;3.78;;;3.33;;
6372;SDS011;3219;51.362;7.074;2023-08-12T15:14:18;3.85;;;2.95;;
6372;SDS011;3219;51.362;7.074;2023-08-12T15:16:46;5.97;;;4.30;;
6372;SDS011;3219;51.362;7.074;2023-08-12T15:19:15;5.70;;;4.25;;
6372;SDS011;3219;51.362;7.074;2023-08-12T15:21:43;5.45;;;4.30;;
6372;SDS011;3219;51.362;7.074;2023-08-12T15:24:12;5.15;;;3.88;;
6372;SDS011;3219;51.362;7.074;2023-08-12T15:26:41;5.05;;;4.55;;
6372;SDS011;3219;51.362;7.074;2023-08-12T15:29:10;4.78;;;4.15;;
6372;SDS011;3219;51.362;7.074;2023-08-12T15:31:39;4.20;;;3.13;;
6372;SDS011;3219;51.362;7.074;2023-08-12T15:34:08;6.15;;;4.68;;
6372;SDS011;3219;51.362;7.074;2023-08-12T15:36:36;4.78;;;3.25;;
6372;SDS011;3219;51.362;7.074;2023-08-12T15:39:05;5.28;;;3.90;;
6372;SDS011;3219;51.362;7.074;2023-08-12T15:41:34;4.05;;;3.10;;
6372;SDS011;3219;51.362;7.074;2023-08-12T15:44:02;3.95;;;3.58;;
6372;SDS011;3219;51.362;7.074;2023-08-12T15:46:32;4.10;;;3.40;;
6372;SDS011;3219;51.362;7.074;2023-08-12T15:49:00;3.50;;;3.15;;
6372;SDS011;3219;51.362;7.074;2023-08-12T15:51:33;3.85;;;3.55;;
6372;SDS011;3219;51.362;7.074;2023-08-12T15:54:04;3.47;;;2.80;;
6372;SDS011;3219;51.362;7.074;2023-08-12T15:56:33;3.92;;;2.75;;
6372;SDS011;3219;51.362;7.074;2023-08-12T15:59:02;4.55;;;2.63;;
6372;SDS011;3219;51.362;7.074;2023-08-12T16:01:32;3.80;;;3.08;;
6372;SDS011;3219;51.362;7.074;2023-08-12T16:04:01;6.60;;;4.25;;